sensor_id;sensor_type;location;lat;lon;timestamp;temperature;humidity
73277;DHT22;61501;43.316;5.372;2022-09-24T00:01:20;21.20;74.10
73277;DHT22;61501;43.316;5.372;2022-09-24T00:03:51;21.20;74.30
73277;DHT22;61501;43.316;5.372;2022-09-24T00:06:17;21.20;74.00
73277;DHT22;61501;43.316;5.372;2022-09-24T00:08:45;21.20;73.60
73277;DHT22;61501;43.316;5.372;2022-09-24T00:11:11;21.20;73.50
73277;DHT22;61501;43.316;5.372;2022-09-24T00:13:38;21.20;73.80
73277;DHT22;61501;43.316;5.372;2022-09-24T00:16:07;21.20;73.70
73277;DHT22;61501;43.316;5.372;2022-09-24T00:18:33;21.20;73.70
73277;DHT22;61501;43.316;5.372;2022-09-24T00:20:59;21.20;73.60
73277;DHT22;61501;43.316;5.372;2022-09-24T00:23:26;21.30;73.30
73277;DHT22;61501;43.316;5.372;2022-09-24T00:25:51;21.20;73.50
73277;DHT22;61501;43.316;5.372;2022-09-24T00:28:36;21.20;73.10
73277;DHT22;61501;43.316;5.372;2022-09-24T00:31:04;21.20;73.20
73277;DHT22;61501;43.316;5.372;2022-09-24T00:33:31;21.20;74.00
73277;DHT22;61501;43.316;5.372;2022-09-24T00:36:00;21.20;74.30
73277;DHT22;61501;43.316;5.372;2022-09-24T00:38:28;21.20;74.90
73277;DHT22;61501;43.316;5.372;2022-09-24T00:40:54;21.10;75.30
73277;DHT22;61501;43.316;5.372;2022-09-24T00:43:21;21.10;76.10
73277;DHT22;61501;43.316;5.372;2022-09-24T00:45:48;21.10;77.00
73277;DHT22;61501;43.316;5.372;2022-09-24T00:48:14;21.00;77.30
73277;DHT22;61501;43.316;5.372;2022-09-24T00:50:40;21.00;77.90
73277;DHT22;61501;43.316;5.372;2022-09-24T00:53:10;20.90;78.60
73277;DHT22;61501;43.316;5.372;2022-09-24T00:55:39;20.80;79.30
73277;DHT22;61501;43.316;5.372;2022-09-24T00:58:06;20.80;79.90
73277;DHT22;61501;43.316;5.372;2022-09-24T01:00:33;20.70;80.90
73277;DHT22;61501;43.316;5.372;2022-09-24T01:03:06;20.80;82.10
73277;DHT22;61501;43.316;5.372;2022-09-24T01:05:34;20.70;81.60
73277;DHT22;61501;43.316;5.372;2022-09-24T01:08:00;20.80;82.20
73277;DHT22;61501;43.316;5.372;2022-09-24T01:21:53;20.50;84.30
73277;DHT22;61501;43.316;5.372;2022-09-24T01:30:31;20.60;86.30
73277;DHT22;61501;43.316;5.372;2022-09-24T01:33:03;20.50;86.90
73277;DHT22;61501;43.316;5.372;2022-09-24T01:35:38;20.40;88.10
73277;DHT22;61501;43.316;5.372;2022-09-24T01:38:20;20.40;87.90
73277;DHT22;61501;43.316;5.372;2022-09-24T01:40:48;20.40;88.00
73277;DHT22;61501;43.316;5.372;2022-09-24T01:43:16;20.40;88.60
73277;DHT22;61501;43.316;5.372;2022-09-24T01:45:43;20.40;88.70
73277;DHT22;61501;43.316;5.372;2022-09-24T01:48:09;20.40;88.50
73277;DHT22;61501;43.316;5.372;2022-09-24T01:50:50;20.40;89.40
73277;DHT22;61501;43.316;5.372;2022-09-24T01:53:23;20.30;88.80
73277;DHT22;61501;43.316;5.372;2022-09-24T01:55:56;20.30;90.10
73277;DHT22;61501;43.316;5.372;2022-09-24T01:58:28;20.20;90.30
73277;DHT22;61501;43.316;5.372;2022-09-24T02:01:00;20.20;90.50
73277;DHT22;61501;43.316;5.372;2022-09-24T02:03:32;20.10;90.90
73277;DHT22;61501;43.316;5.372;2022-09-24T02:06:09;20.10;91.10
73277;DHT22;61501;43.316;5.372;2022-09-24T02:08:45;20.00;91.00
73277;DHT22;61501;43.316;5.372;2022-09-24T02:11:21;20.10;91.10
73277;DHT22;61501;43.316;5.372;2022-09-24T02:16:32;19.90;91.60
73277;DHT22;61501;43.316;5.372;2022-09-24T02:19:02;19.90;92.10
73277;DHT22;61501;43.316;5.372;2022-09-24T02:21:30;19.80;91.70
73277;DHT22;61501;43.316;5.372;2022-09-24T02:24:03;19.80;92.00
73277;DHT22;61501;43.316;5.372;2022-09-24T02:26:30;19.80;92.00
73277;DHT22;61501;43.316;5.372;2022-09-24T02:28:55;19.80;91.70
73277;DHT22;61501;43.316;5.372;2022-09-24T02:31:27;19.70;91.90
73277;DHT22;61501;43.316;5.372;2022-09-24T02:33:55;19.70;92.20
73277;DHT22;61501;43.316;5.372;2022-09-24T02:36:40;19.60;92.60
73277;DHT22;61501;43.316;5.372;2022-09-24T02:39:06;19.60;92.60
73277;DHT22;61501;43.316;5.372;2022-09-24T02:41:33;19.50;92.70
73277;DHT22;61501;43.316;5.372;2022-09-24T02:43:58;19.50;92.90
73277;DHT22;61501;43.316;5.372;2022-09-24T02:46:24;19.50;92.80
73277;DHT22;61501;43.316;5.372;2022-09-24T02:48:50;19.60;92.80
73277;DHT22;61501;43.316;5.372;2022-09-24T02:51:15;19.50;93.10
73277;DHT22;61501;43.316;5.372;2022-09-24T02:53:41;19.40;93.20
73277;DHT22;61501;43.316;5.372;2022-09-24T02:56:07;19.40;93.60
73277;DHT22;61501;43.316;5.372;2022-09-24T02:58:33;19.40;94.20
73277;DHT22;61501;43.316;5.372;2022-09-24T03:01:02;19.30;94.20
73277;DHT22;61501;43.316;5.372;2022-09-24T03:03:28;19.30;94.70
73277;DHT22;61501;43.316;5.372;2022-09-24T03:05:54;19.20;94.70
73277;DHT22;61501;43.316;5.372;2022-09-24T03:08:20;19.20;94.90
73277;DHT22;61501;43.316;5.372;2022-09-24T03:10:47;19.10;95.20
73277;DHT22;61501;43.316;5.372;2022-09-24T03:13:13;19.20;95.20
73277;DHT22;61501;43.316;5.372;2022-09-24T03:15:39;19.20;95.40
73277;DHT22;61501;43.316;5.372;2022-09-24T03:18:04;19.20;95.50
73277;DHT22;61501;43.316;5.372;2022-09-24T03:20:30;19.20;95.60
73277;DHT22;61501;43.316;5.372;2022-09-24T03:22:56;19.20;95.60
73277;DHT22;61501;43.316;5.372;2022-09-24T03:25:22;19.20;95.80
73277;DHT22;61501;43.316;5.372;2022-09-24T03:27:47;19.30;95.70
73277;DHT22;61501;43.316;5.372;2022-09-24T03:30:13;19.30;95.60
73277;DHT22;61501;43.316;5.372;2022-09-24T03:32:57;19.20;95.70
73277;DHT22;61501;43.316;5.372;2022-09-24T03:35:24;19.30;95.70
73277;DHT22;61501;43.316;5.372;2022-09-24T03:37:50;19.30;95.50
73277;DHT22;61501;43.316;5.372;2022-09-24T03:40:16;19.30;95.30
73277;DHT22;61501;43.316;5.372;2022-09-24T03:42:42;19.30;95.60
73277;DHT22;61501;43.316;5.372;2022-09-24T03:45:08;19.20;95.40
73277;DHT22;61501;43.316;5.372;2022-09-24T03:47:34;19.20;96.00
73277;DHT22;61501;43.316;5.372;2022-09-24T03:50:00;19.20;95.40
73277;DHT22;61501;43.316;5.372;2022-09-24T03:52:27;19.20;95.60
73277;DHT22;61501;43.316;5.372;2022-09-24T03:54:53;19.20;95.60
73277;DHT22;61501;43.316;5.372;2022-09-24T03:57:19;19.20;95.60
73277;DHT22;61501;43.316;5.372;2022-09-24T03:59:44;19.20;95.60
73277;DHT22;61501;43.316;5.372;2022-09-24T04:02:11;19.20;95.60
73277;DHT22;61501;43.316;5.372;2022-09-24T04:04:37;19.20;95.70
73277;DHT22;61501;43.316;5.372;2022-09-24T04:07:09;19.20;95.80
73277;DHT22;61501;43.316;5.372;2022-09-24T04:09:36;19.20;95.80
73277;DHT22;61501;43.316;5.372;2022-09-24T04:12:01;19.20;95.60
73277;DHT22;61501;43.316;5.372;2022-09-24T04:14:27;19.20;95.80
73277;DHT22;61501;43.316;5.372;2022-09-24T04:16:53;19.20;96.00
73277;DHT22;61501;43.316;5.372;2022-09-24T04:19:19;19.20;95.90
73277;DHT22;61501;43.316;5.372;2022-09-24T04:21:45;19.30;95.70
73277;DHT22;61501;43.316;5.372;2022-09-24T04:24:11;19.30;95.80
73277;DHT22;61501;43.316;5.372;2022-09-24T04:26:36;19.30;95.90
73277;DHT22;61501;43.316;5.372;2022-09-24T04:29:02;19.30;95.90
73277;DHT22;61501;43.316;5.372;2022-09-24T04:31:28;19.30;95.60
73277;DHT22;61501;43.316;5.372;2022-09-24T04:33:54;19.30;95.20
73277;DHT22;61501;43.316;5.372;2022-09-24T04:36:20;19.30;95.30
73277;DHT22;61501;43.316;5.372;2022-09-24T04:38:46;19.30;94.20
73277;DHT22;61501;43.316;5.372;2022-09-24T04:41:12;19.30;93.80
73277;DHT22;61501;43.316;5.372;2022-09-24T04:43:40;19.30;94.30
73277;DHT22;61501;43.316;5.372;2022-09-24T04:46:06;19.30;94.00
73277;DHT22;61501;43.316;5.372;2022-09-24T04:48:34;19.30;93.80
73277;DHT22;61501;43.316;5.372;2022-09-24T04:51:03;19.30;94.10
73277;DHT22;61501;43.316;5.372;2022-09-24T04:53:30;19.20;94.20
73277;DHT22;61501;43.316;5.372;2022-09-24T04:55:57;19.20;94.60
73277;DHT22;61501;43.316;5.372;2022-09-24T04:58:24;19.20;95.00
73277;DHT22;61501;43.316;5.372;2022-09-24T05:00:50;19.20;95.10
73277;DHT22;61501;43.316;5.372;2022-09-24T05:03:16;19.10;95.30
73277;DHT22;61501;43.316;5.372;2022-09-24T05:05:42;19.10;95.50
73277;DHT22;61501;43.316;5.372;2022-09-24T05:08:07;19.10;95.70
73277;DHT22;61501;43.316;5.372;2022-09-24T05:10:33;19.10;95.60
73277;DHT22;61501;43.316;5.372;2022-09-24T05:12:59;19.10;95.40
73277;DHT22;61501;43.316;5.372;2022-09-24T05:15:25;19.10;95.20
73277;DHT22;61501;43.316;5.372;2022-09-24T05:17:51;19.10;95.40
73277;DHT22;61501;43.316;5.372;2022-09-24T05:20:16;19.10;94.90
73277;DHT22;61501;43.316;5.372;2022-09-24T05:22:47;19.10;94.90
73277;DHT22;61501;43.316;5.372;2022-09-24T05:25:14;19.20;95.10
73277;DHT22;61501;43.316;5.372;2022-09-24T05:27:48;19.20;95.10
73277;DHT22;61501;43.316;5.372;2022-09-24T05:30:16;19.20;94.90
73277;DHT22;61501;43.316;5.372;2022-09-24T05:32:41;19.20;94.80
73277;DHT22;61501;43.316;5.372;2022-09-24T05:35:08;19.20;94.60
73277;DHT22;61501;43.316;5.372;2022-09-24T05:37:35;19.10;94.40
73277;DHT22;61501;43.316;5.372;2022-09-24T05:40:02;19.10;94.20
73277;DHT22;61501;43.316;5.372;2022-09-24T05:42:48;19.20;94.40
73277;DHT22;61501;43.316;5.372;2022-09-24T05:45:14;19.10;93.80
73277;DHT22;61501;43.316;5.372;2022-09-24T05:47:45;19.10;93.10
73277;DHT22;61501;43.316;5.372;2022-09-24T05:50:12;19.10;92.70
73277;DHT22;61501;43.316;5.372;2022-09-24T05:52:39;19.10;92.80
73277;DHT22;61501;43.316;5.372;2022-09-24T05:55:06;19.10;92.50
73277;DHT22;61501;43.316;5.372;2022-09-24T05:57:32;19.10;92.30
73277;DHT22;61501;43.316;5.372;2022-09-24T05:59:58;19.20;92.40
73277;DHT22;61501;43.316;5.372;2022-09-24T06:02:24;19.10;92.20
73277;DHT22;61501;43.316;5.372;2022-09-24T06:04:49;19.10;92.40
73277;DHT22;61501;43.316;5.372;2022-09-24T06:07:15;19.20;92.40
73277;DHT22;61501;43.316;5.372;2022-09-24T06:09:41;19.10;92.30
73277;DHT22;61501;43.316;5.372;2022-09-24T06:12:07;19.10;92.10
73277;DHT22;61501;43.316;5.372;2022-09-24T06:14:35;19.10;91.80
73277;DHT22;61501;43.316;5.372;2022-09-24T06:17:00;19.10;91.60
73277;DHT22;61501;43.316;5.372;2022-09-24T06:19:26;19.10;91.50
73277;DHT22;61501;43.316;5.372;2022-09-24T06:21:51;19.10;91.70
73277;DHT22;61501;43.316;5.372;2022-09-24T06:24:17;19.00;91.50
73277;DHT22;61501;43.316;5.372;2022-09-24T06:26:43;19.00;91.30
73277;DHT22;61501;43.316;5.372;2022-09-24T06:29:08;19.10;91.00
73277;DHT22;61501;43.316;5.372;2022-09-24T06:31:34;19.10;90.80
73277;DHT22;61501;43.316;5.372;2022-09-24T06:33:59;19.10;90.90
73277;DHT22;61501;43.316;5.372;2022-09-24T06:36:27;19.10;90.40
73277;DHT22;61501;43.316;5.372;2022-09-24T06:38:52;19.20;90.50
73277;DHT22;61501;43.316;5.372;2022-09-24T06:41:18;19.20;90.40
73277;DHT22;61501;43.316;5.372;2022-09-24T06:43:44;19.20;90.20
73277;DHT22;61501;43.316;5.372;2022-09-24T06:46:10;19.20;89.90
73277;DHT22;61501;43.316;5.372;2022-09-24T06:48:35;19.20;89.80
73277;DHT22;61501;43.316;5.372;2022-09-24T06:51:05;19.10;90.00
73277;DHT22;61501;43.316;5.372;2022-09-24T06:53:32;19.10;88.70
73277;DHT22;61501;43.316;5.372;2022-09-24T06:55:58;19.10;89.00
73277;DHT22;61501;43.316;5.372;2022-09-24T06:58:28;19.10;89.90
73277;DHT22;61501;43.316;5.372;2022-09-24T07:00:56;19.20;89.50
73277;DHT22;61501;43.316;5.372;2022-09-24T07:03:27;19.20;89.50
73277;DHT22;61501;43.316;5.372;2022-09-24T07:05:54;19.20;89.20
73277;DHT22;61501;43.316;5.372;2022-09-24T07:08:20;19.20;89.10
73277;DHT22;61501;43.316;5.372;2022-09-24T07:10:47;19.20;89.00
73277;DHT22;61501;43.316;5.372;2022-09-24T07:13:17;19.20;89.60
73277;DHT22;61501;43.316;5.372;2022-09-24T07:15:44;19.20;89.30
73277;DHT22;61501;43.316;5.372;2022-09-24T07:18:11;19.30;89.60
73277;DHT22;61501;43.316;5.372;2022-09-24T07:20:36;19.20;90.00
73277;DHT22;61501;43.316;5.372;2022-09-24T07:23:07;19.20;90.20
73277;DHT22;61501;43.316;5.372;2022-09-24T07:25:34;19.20;90.30
73277;DHT22;61501;43.316;5.372;2022-09-24T07:28:05;19.20;90.30
73277;DHT22;61501;43.316;5.372;2022-09-24T07:30:32;19.10;90.30
73277;DHT22;61501;43.316;5.372;2022-09-24T07:32:58;19.20;90.60
73277;DHT22;61501;43.316;5.372;2022-09-24T07:35:25;19.20;90.60
73277;DHT22;61501;43.316;5.372;2022-09-24T07:38:05;19.20;90.30
73277;DHT22;61501;43.316;5.372;2022-09-24T07:40:32;19.30;90.30
73277;DHT22;61501;43.316;5.372;2022-09-24T07:42:58;19.30;90.30
73277;DHT22;61501;43.316;5.372;2022-09-24T07:45:26;19.30;90.40
73277;DHT22;61501;43.316;5.372;2022-09-24T07:48:03;19.30;90.60
73277;DHT22;61501;43.316;5.372;2022-09-24T07:50:36;19.30;90.40
73277;DHT22;61501;43.316;5.372;2022-09-24T07:53:03;19.40;90.40
73277;DHT22;61501;43.316;5.372;2022-09-24T07:55:28;19.40;90.10
73277;DHT22;61501;43.316;5.372;2022-09-24T07:57:54;19.40;90.30
73277;DHT22;61501;43.316;5.372;2022-09-24T08:00:21;19.40;90.30
73277;DHT22;61501;43.316;5.372;2022-09-24T08:02:48;19.40;90.30
73277;DHT22;61501;43.316;5.372;2022-09-24T08:05:14;19.40;90.50
73277;DHT22;61501;43.316;5.372;2022-09-24T08:07:49;19.40;90.50
73277;DHT22;61501;43.316;5.372;2022-09-24T08:10:15;19.40;90.60
73277;DHT22;61501;43.316;5.372;2022-09-24T08:12:41;19.40;90.60
73277;DHT22;61501;43.316;5.372;2022-09-24T08:15:06;19.40;90.40
73277;DHT22;61501;43.316;5.372;2022-09-24T08:17:32;19.50;90.30
73277;DHT22;61501;43.316;5.372;2022-09-24T08:19:58;19.60;90.20
73277;DHT22;61501;43.316;5.372;2022-09-24T08:22:24;19.70;89.30
73277;DHT22;61501;43.316;5.372;2022-09-24T08:24:51;19.90;88.80
73277;DHT22;61501;43.316;5.372;2022-09-24T08:27:17;20.00;88.40
73277;DHT22;61501;43.316;5.372;2022-09-24T08:29:45;20.00;88.00
73277;DHT22;61501;43.316;5.372;2022-09-24T08:32:10;20.10;87.90
73277;DHT22;61501;43.316;5.372;2022-09-24T08:34:37;20.00;87.90
73277;DHT22;61501;43.316;5.372;2022-09-24T08:37:08;20.10;88.00
73277;DHT22;61501;43.316;5.372;2022-09-24T08:39:34;20.00;87.80
73277;DHT22;61501;43.316;5.372;2022-09-24T08:42:05;20.00;87.80
73277;DHT22;61501;43.316;5.372;2022-09-24T08:44:39;20.00;88.20
73277;DHT22;61501;43.316;5.372;2022-09-24T08:55:17;20.40;86.80
73277;DHT22;61501;43.316;5.372;2022-09-24T09:00:25;20.50;86.00
73277;DHT22;61501;43.316;5.372;2022-09-24T09:05:54;20.60;86.20
73277;DHT22;61501;43.316;5.372;2022-09-24T09:08:48;20.60;86.10
73277;DHT22;61501;43.316;5.372;2022-09-24T09:11:18;20.80;85.70
73277;DHT22;61501;43.316;5.372;2022-09-24T09:13:55;20.90;85.20
73277;DHT22;61501;43.316;5.372;2022-09-24T09:16:35;21.00;84.40
73277;DHT22;61501;43.316;5.372;2022-09-24T09:19:12;21.10;84.30
73277;DHT22;61501;43.316;5.372;2022-09-24T09:21:44;21.20;83.60
73277;DHT22;61501;43.316;5.372;2022-09-24T09:24:17;21.10;83.70
73277;DHT22;61501;43.316;5.372;2022-09-24T09:26:47;21.10;84.20
73277;DHT22;61501;43.316;5.372;2022-09-24T09:29:13;21.10;84.50
73277;DHT22;61501;43.316;5.372;2022-09-24T09:43:00;21.20;84.40
73277;DHT22;61501;43.316;5.372;2022-09-24T09:48:18;21.30;84.50
73277;DHT22;61501;43.316;5.372;2022-09-24T09:50:57;21.20;84.40
73277;DHT22;61501;43.316;5.372;2022-09-24T09:53:26;21.20;84.50
73277;DHT22;61501;43.316;5.372;2022-09-24T09:56:04;21.40;84.30
73277;DHT22;61501;43.316;5.372;2022-09-24T09:58:35;21.40;84.10
73277;DHT22;61501;43.316;5.372;2022-09-24T10:01:10;21.60;83.50
73277;DHT22;61501;43.316;5.372;2022-09-24T10:06:11;21.80;82.30
73277;DHT22;61501;43.316;5.372;2022-09-24T10:08:37;21.90;82.00
73277;DHT22;61501;43.316;5.372;2022-09-24T10:11:05;21.80;81.70
73277;DHT22;61501;43.316;5.372;2022-09-24T10:13:32;21.80;82.10
73277;DHT22;61501;43.316;5.372;2022-09-24T10:16:03;22.00;81.30
73277;DHT22;61501;43.316;5.372;2022-09-24T10:18:34;21.90;81.10
73277;DHT22;61501;43.316;5.372;2022-09-24T10:21:07;21.60;82.00
73277;DHT22;61501;43.316;5.372;2022-09-24T10:23:41;21.60;82.60
73277;DHT22;61501;43.316;5.372;2022-09-24T10:26:07;21.70;82.50
73277;DHT22;61501;43.316;5.372;2022-09-24T10:28:38;21.60;82.10
73277;DHT22;61501;43.316;5.372;2022-09-24T10:31:28;21.60;82.50
73277;DHT22;61501;43.316;5.372;2022-09-24T10:33:56;21.80;81.50
73277;DHT22;61501;43.316;5.372;2022-09-24T10:36:28;21.90;81.20
73277;DHT22;61501;43.316;5.372;2022-09-24T10:39:15;22.10;81.20
73277;DHT22;61501;43.316;5.372;2022-09-24T10:41:48;22.30;80.10
73277;DHT22;61501;43.316;5.372;2022-09-24T10:44:14;22.10;79.60
73277;DHT22;61501;43.316;5.372;2022-09-24T10:57:36;22.10;82.00
73277;DHT22;61501;43.316;5.372;2022-09-24T11:00:17;22.10;82.00
73277;DHT22;61501;43.316;5.372;2022-09-24T11:03:20;22.10;81.40
73277;DHT22;61501;43.316;5.372;2022-09-24T11:05:55;22.10;82.40
73277;DHT22;61501;43.316;5.372;2022-09-24T11:17:22;22.40;81.60
73277;DHT22;61501;43.316;5.372;2022-09-24T11:20:20;22.50;81.20
73277;DHT22;61501;43.316;5.372;2022-09-24T11:25:39;22.80;80.50
73277;DHT22;61501;43.316;5.372;2022-09-24T11:47:56;25.00;72.30
73277;DHT22;61501;43.316;5.372;2022-09-24T12:21:17;24.80;72.10
73277;DHT22;61501;43.316;5.372;2022-09-24T12:26:13;24.30;73.40
73277;DHT22;61501;43.316;5.372;2022-09-24T12:32:03;24.00;74.40
73277;DHT22;61501;43.316;5.372;2022-09-24T12:35:15;23.80;74.80
73277;DHT22;61501;43.316;5.372;2022-09-24T13:44:03;23.90;74.70
73277;DHT22;61501;43.316;5.372;2022-09-24T14:13:41;25.80;67.00
73277;DHT22;61501;43.316;5.372;2022-09-24T14:16:18;25.20;69.40
73277;DHT22;61501;43.316;5.372;2022-09-24T14:18:44;24.00;72.50
73277;DHT22;61501;43.316;5.372;2022-09-24T14:21:35;23.00;76.40
73277;DHT22;61501;43.316;5.372;2022-09-24T14:27:06;22.80;78.20
73277;DHT22;61501;43.316;5.372;2022-09-24T14:29:57;22.80;79.30
73277;DHT22;61501;43.316;5.372;2022-09-24T14:32:32;23.20;77.60
73277;DHT22;61501;43.316;5.372;2022-09-24T14:35:20;23.00;78.70
73277;DHT22;61501;43.316;5.372;2022-09-24T14:37:51;23.00;78.70
73277;DHT22;61501;43.316;5.372;2022-09-24T14:40:20;22.80;80.00
73277;DHT22;61501;43.316;5.372;2022-09-24T14:42:47;23.20;79.30
73277;DHT22;61501;43.316;5.372;2022-09-24T14:45:22;22.80;79.70
73277;DHT22;61501;43.316;5.372;2022-09-24T14:48:03;22.70;80.80
73277;DHT22;61501;43.316;5.372;2022-09-24T14:50:32;22.90;79.80
73277;DHT22;61501;43.316;5.372;2022-09-24T14:53:01;23.00;79.80
73277;DHT22;61501;43.316;5.372;2022-09-24T14:55:38;23.00;80.60
73277;DHT22;61501;43.316;5.372;2022-09-24T14:58:05;23.00;80.60
73277;DHT22;61501;43.316;5.372;2022-09-24T15:00:46;22.80;80.80
73277;DHT22;61501;43.316;5.372;2022-09-24T15:03:14;22.80;81.70
73277;DHT22;61501;43.316;5.372;2022-09-24T15:05:41;22.70;81.70
73277;DHT22;61501;43.316;5.372;2022-09-24T15:08:39;22.70;82.10
73277;DHT22;61501;43.316;5.372;2022-09-24T15:11:05;23.20;81.10
73277;DHT22;61501;43.316;5.372;2022-09-24T15:13:35;23.60;78.90
73277;DHT22;61501;43.316;5.372;2022-09-24T15:16:03;23.90;77.40
73277;DHT22;61501;43.316;5.372;2022-09-24T15:18:30;24.30;76.60
73277;DHT22;61501;43.316;5.372;2022-09-24T15:20:55;24.00;76.90
73277;DHT22;61501;43.316;5.372;2022-09-24T15:23:24;22.80;82.30
73277;DHT22;61501;43.316;5.372;2022-09-24T15:25:49;22.70;84.00
73277;DHT22;61501;43.316;5.372;2022-09-24T15:28:15;22.60;83.40
73277;DHT22;61501;43.316;5.372;2022-09-24T15:30:41;22.70;82.90
73277;DHT22;61501;43.316;5.372;2022-09-24T15:33:13;22.70;84.20
73277;DHT22;61501;43.316;5.372;2022-09-24T15:35:39;22.60;86.50
73277;DHT22;61501;43.316;5.372;2022-09-24T15:38:14;22.50;88.20
73277;DHT22;61501;43.316;5.372;2022-09-24T15:40:41;22.40;87.90
73277;DHT22;61501;43.316;5.372;2022-09-24T15:43:22;22.40;87.60
73277;DHT22;61501;43.316;5.372;2022-09-24T15:45:48;22.20;88.50
73277;DHT22;61501;43.316;5.372;2022-09-24T15:48:14;22.10;88.70
73277;DHT22;61501;43.316;5.372;2022-09-24T15:50:41;22.10;90.20
73277;DHT22;61501;43.316;5.372;2022-09-24T15:53:15;22.10;90.00
73277;DHT22;61501;43.316;5.372;2022-09-24T15:55:41;22.10;90.10
73277;DHT22;61501;43.316;5.372;2022-09-24T15:58:11;22.10;90.10
73277;DHT22;61501;43.316;5.372;2022-09-24T16:00:38;22.10;90.20
73277;DHT22;61501;43.316;5.372;2022-09-24T16:03:04;22.20;90.60
73277;DHT22;61501;43.316;5.372;2022-09-24T16:05:30;22.20;90.60
73277;DHT22;61501;43.316;5.372;2022-09-24T16:07:56;22.10;90.50
73277;DHT22;61501;43.316;5.372;2022-09-24T16:10:22;22.00;91.20
73277;DHT22;61501;43.316;5.372;2022-09-24T16:12:48;21.80;91.60
73277;DHT22;61501;43.316;5.372;2022-09-24T16:15:14;21.80;91.70
73277;DHT22;61501;43.316;5.372;2022-09-24T16:17:41;21.70;91.70
73277;DHT22;61501;43.316;5.372;2022-09-24T16:20:07;21.70;92.00
73277;DHT22;61501;43.316;5.372;2022-09-24T16:22:34;21.60;92.50
73277;DHT22;61501;43.316;5.372;2022-09-24T16:25:00;21.60;92.10
73277;DHT22;61501;43.316;5.372;2022-09-24T16:27:26;21.50;92.90
73277;DHT22;61501;43.316;5.372;2022-09-24T16:29:51;21.50;92.80
73277;DHT22;61501;43.316;5.372;2022-09-24T16:32:17;21.40;93.30
73277;DHT22;61501;43.316;5.372;2022-09-24T16:34:42;21.40;93.70
73277;DHT22;61501;43.316;5.372;2022-09-24T16:37:08;21.40;93.20
73277;DHT22;61501;43.316;5.372;2022-09-24T16:39:34;21.30;93.90
73277;DHT22;61501;43.316;5.372;2022-09-24T16:42:00;21.30;93.90
73277;DHT22;61501;43.316;5.372;2022-09-24T16:44:25;21.20;93.80
73277;DHT22;61501;43.316;5.372;2022-09-24T16:46:51;21.20;93.50
73277;DHT22;61501;43.316;5.372;2022-09-24T16:49:17;21.30;93.90
73277;DHT22;61501;43.316;5.372;2022-09-24T16:51:43;21.30;93.50
73277;DHT22;61501;43.316;5.372;2022-09-24T16:54:09;21.20;94.40
73277;DHT22;61501;43.316;5.372;2022-09-24T16:56:36;21.20;94.70
73277;DHT22;61501;43.316;5.372;2022-09-24T16:59:03;21.00;94.90
73277;DHT22;61501;43.316;5.372;2022-09-24T17:01:28;20.80;95.80
73277;DHT22;61501;43.316;5.372;2022-09-24T17:03:56;20.70;96.40
73277;DHT22;61501;43.316;5.372;2022-09-24T17:06:27;20.70;96.70
73277;DHT22;61501;43.316;5.372;2022-09-24T17:08:53;20.60;97.00
73277;DHT22;61501;43.316;5.372;2022-09-24T17:11:38;20.70;97.00
73277;DHT22;61501;43.316;5.372;2022-09-24T17:14:05;20.80;96.60
73277;DHT22;61501;43.316;5.372;2022-09-24T17:16:32;20.80;96.40
73277;DHT22;61501;43.316;5.372;2022-09-24T17:18:58;20.70;96.90
73277;DHT22;61501;43.316;5.372;2022-09-24T17:21:23;20.70;97.00
73277;DHT22;61501;43.316;5.372;2022-09-24T17:23:49;20.60;96.80
73277;DHT22;61501;43.316;5.372;2022-09-24T17:26:18;20.60;97.30
73277;DHT22;61501;43.316;5.372;2022-09-24T17:28:45;20.40;97.80
73277;DHT22;61501;43.316;5.372;2022-09-24T17:31:14;20.40;98.00
73277;DHT22;61501;43.316;5.372;2022-09-24T17:33:40;20.40;97.40
73277;DHT22;61501;43.316;5.372;2022-09-24T17:36:10;20.40;97.80
73277;DHT22;61501;43.316;5.372;2022-09-24T17:38:37;20.40;98.00
73277;DHT22;61501;43.316;5.372;2022-09-24T17:41:08;20.50;97.50
73277;DHT22;61501;43.316;5.372;2022-09-24T17:43:35;20.40;97.90
73277;DHT22;61501;43.316;5.372;2022-09-24T17:48:29;20.40;98.10
73277;DHT22;61501;43.316;5.372;2022-09-24T17:50:56;20.50;98.10
73277;DHT22;61501;43.316;5.372;2022-09-24T17:53:23;20.50;97.90
73277;DHT22;61501;43.316;5.372;2022-09-24T17:55:50;20.60;97.40
73277;DHT22;61501;43.316;5.372;2022-09-24T17:58:18;20.60;97.50
73277;DHT22;61501;43.316;5.372;2022-09-24T18:00:45;20.60;97.30
73277;DHT22;61501;43.316;5.372;2022-09-24T18:03:11;20.70;97.30
73277;DHT22;61501;43.316;5.372;2022-09-24T18:05:37;20.80;96.80
73277;DHT22;61501;43.316;5.372;2022-09-24T18:08:04;20.90;96.50
73277;DHT22;61501;43.316;5.372;2022-09-24T18:10:30;20.90;96.40
73277;DHT22;61501;43.316;5.372;2022-09-24T18:12:55;21.00;96.40
73277;DHT22;61501;43.316;5.372;2022-09-24T18:15:24;21.10;96.00
73277;DHT22;61501;43.316;5.372;2022-09-24T18:17:50;21.10;96.00
73277;DHT22;61501;43.316;5.372;2022-09-24T18:20:17;21.10;96.00
73277;DHT22;61501;43.316;5.372;2022-09-24T18:22:43;21.10;96.00
73277;DHT22;61501;43.316;5.372;2022-09-24T18:25:13;21.10;95.80
73277;DHT22;61501;43.316;5.372;2022-09-24T18:27:41;21.10;94.80
73277;DHT22;61501;43.316;5.372;2022-09-24T18:30:10;21.00;94.30
73277;DHT22;61501;43.316;5.372;2022-09-24T18:32:36;20.90;93.50
73277;DHT22;61501;43.316;5.372;2022-09-24T18:35:07;20.90;93.60
73277;DHT22;61501;43.316;5.372;2022-09-24T18:37:35;20.80;93.00
73277;DHT22;61501;43.316;5.372;2022-09-24T18:40:02;20.80;93.10
73277;DHT22;61501;43.316;5.372;2022-09-24T18:42:28;20.80;93.10
73277;DHT22;61501;43.316;5.372;2022-09-24T18:44:54;20.80;93.60
73277;DHT22;61501;43.316;5.372;2022-09-24T18:47:20;20.90;93.60
73277;DHT22;61501;43.316;5.372;2022-09-24T18:49:45;20.90;93.40
73277;DHT22;61501;43.316;5.372;2022-09-24T18:52:11;20.90;93.60
73277;DHT22;61501;43.316;5.372;2022-09-24T18:54:38;20.90;93.70
73277;DHT22;61501;43.316;5.372;2022-09-24T18:57:03;20.90;93.60
73277;DHT22;61501;43.316;5.372;2022-09-24T18:59:29;20.80;93.70
73277;DHT22;61501;43.316;5.372;2022-09-24T19:01:59;20.80;93.60
73277;DHT22;61501;43.316;5.372;2022-09-24T19:04:25;20.80;93.30
73277;DHT22;61501;43.316;5.372;2022-09-24T19:06:50;20.80;93.20
73277;DHT22;61501;43.316;5.372;2022-09-24T19:09:17;20.80;93.40
73277;DHT22;61501;43.316;5.372;2022-09-24T19:11:45;20.80;92.70
73277;DHT22;61501;43.316;5.372;2022-09-24T19:14:11;20.90;92.90
73277;DHT22;61501;43.316;5.372;2022-09-24T19:16:39;20.90;93.20
73277;DHT22;61501;43.316;5.372;2022-09-24T19:19:04;20.80;92.90
73277;DHT22;61501;43.316;5.372;2022-09-24T19:21:30;20.80;93.10
73277;DHT22;61501;43.316;5.372;2022-09-24T19:23:56;20.90;92.90
73277;DHT22;61501;43.316;5.372;2022-09-24T19:26:25;20.90;92.40
73277;DHT22;61501;43.316;5.372;2022-09-24T19:28:52;20.90;92.50